createdAt,value
2022-09-23T00:01:11.130Z,4.38
2022-09-23T00:03:45.402Z,4.05
2022-09-23T00:06:14.909Z,6.13
2022-09-23T00:08:42.171Z,5.18
2022-09-23T00:11:29.255Z,4.70
2022-09-23T00:13:58.567Z,3.95
2022-09-23T00:16:34.135Z,3.15
2022-09-23T00:19:02.422Z,4.97
2022-09-23T00:21:29.400Z,3.55
2022-09-23T00:23:56.241Z,4.15
2022-09-23T00:26:25.269Z,3.53
2022-09-23T00:28:52.574Z,2.55
2022-09-23T00:31:25.494Z,3.38
2022-09-23T00:33:57.535Z,3.33
2022-09-23T00:36:25.877Z,3.45
2022-09-23T00:38:53.846Z,4.60
2022-09-23T00:41:21.340Z,5.05
2022-09-23T00:43:52.900Z,3.53
2022-09-23T00:46:29.006Z,2.88
2022-09-23T00:49:19.332Z,1.80
2022-09-23T00:52:06.651Z,3.97
2022-09-23T00:54:34.118Z,3.50
2022-09-23T00:57:01.449Z,4.18
2022-09-23T00:59:29.188Z,3.38
2022-09-23T01:01:57.960Z,2.97
2022-09-23T01:04:26.977Z,4.47
2022-09-23T01:06:53.813Z,4.45
2022-09-23T01:09:22.087Z,3.53
2022-09-23T01:12:16.274Z,4.25
2022-09-23T01:14:49.006Z,3.38
2022-09-23T01:17:19.380Z,4.22
2022-09-23T01:20:17.025Z,2.05
2022-09-23T01:23:21.351Z,2.22
2022-09-23T01:26:06.306Z,3.60
2022-09-23T01:28:57.757Z,2.80
2022-09-23T01:31:27.748Z,4.03
2022-09-23T01:34:31.042Z,3.85
2022-09-23T01:37:05.460Z,2.10
2022-09-23T01:39:40.314Z,2.25
2022-09-23T01:42:17.735Z,2.38
2022-09-23T01:44:52.055Z,2.67
2022-09-23T01:47:30.510Z,3.30
2022-09-23T01:50:25.072Z,4.35
2022-09-23T01:52:56.564Z,4.93
2022-09-23T01:55:32.027Z,3.95
2022-09-23T01:58:26.371Z,2.97
2022-09-23T02:01:06.398Z,3.33
2022-09-23T02:03:55.224Z,3.78
2022-09-23T02:06:39.243Z,2.95
2022-09-23T02:09:12.667Z,3.72
2022-09-23T02:11:42.033Z,2.88
2022-09-23T02:14:38.178Z,1.90
2022-09-23T02:17:13.109Z,4.78
2022-09-23T02:19:47.912Z,5.05
2022-09-23T02:22:35.388Z,4.00
2022-09-23T02:25:03.756Z,3.30
2022-09-23T02:27:40.514Z,3.30
2022-09-23T02:30:13.662Z,5.40
2022-09-23T02:32:43.551Z,2.83
2022-09-23T02:35:37.436Z,3.17
2022-09-23T02:38:19.455Z,3.20
2022-09-23T02:41:10.762Z,1.85
2022-09-23T02:43:50.706Z,3.22
2022-09-23T02:46:18.339Z,7.30
2022-09-23T02:48:56.927Z,2.22
2022-09-23T02:51:28.947Z,3.60
2022-09-23T02:53:57.169Z,3.08
2022-09-23T02:56:24.890Z,2.50
2022-09-23T02:58:54.166Z,4.18
2022-09-23T03:01:40.402Z,6.45
2022-09-23T03:04:21.021Z,4.22
2022-09-23T03:07:20.728Z,2.92
2022-09-23T03:10:09.785Z,3.00
2022-09-23T03:12:39.360Z,3.08
2022-09-23T03:15:21.842Z,2.53
2022-09-23T03:18:10.389Z,3.83
2022-09-23T03:20:44.733Z,4.78
2022-09-23T03:23:15.215Z,3.40
2022-09-23T03:25:45.829Z,5.68
2022-09-23T03:28:14.267Z,2.83
2022-09-23T03:30:43.567Z,5.05
2022-09-23T03:33:15.699Z,2.30
2022-09-23T03:36:10.638Z,3.97
2022-09-23T03:38:42.627Z,4.03
2022-09-23T03:41:16.702Z,3.92
2022-09-23T03:43:45.045Z,4.32
2022-09-23T03:46:15.245Z,4.20
2022-09-23T03:48:42.160Z,5.13
2022-09-23T03:51:23.865Z,3.45
2022-09-23T03:53:51.305Z,5.30
2022-09-23T03:56:18.082Z,4.20
2022-09-23T03:58:46.567Z,3.40
2022-09-23T04:01:14.899Z,4.22
2022-09-23T04:03:41.891Z,7.03
2022-09-23T04:06:08.951Z,3.58
2022-09-23T04:08:36.037Z,4.45
2022-09-23T04:11:04.704Z,3.40
2022-09-23T04:13:32.052Z,4.22
2022-09-23T04:15:59.380Z,2.38
2022-09-23T04:18:26.846Z,3.13
2022-09-23T04:21:00.305Z,2.83
2022-09-23T04:23:27.708Z,2.90
2022-09-23T04:25:55.631Z,5.43
2022-09-23T04:28:25.379Z,3.05
2022-09-23T04:30:52.426Z,6.28
2022-09-23T04:33:19.214Z,5.30
2022-09-23T04:35:53.356Z,3.00
2022-09-23T04:38:20.241Z,4.25
2022-09-23T04:40:47.191Z,3.88
2022-09-23T04:43:16.222Z,2.60
2022-09-23T04:45:44.009Z,3.22
2022-09-23T04:48:12.057Z,5.57
2022-09-23T04:50:39.399Z,3.47
2022-09-23T04:53:06.713Z,1.88
2022-09-23T04:55:33.677Z,6.38
2022-09-23T04:58:00.485Z,2.90
2022-09-23T05:00:28.663Z,4.15
2022-09-23T05:02:55.616Z,4.70
2022-09-23T05:05:24.374Z,7.43
2022-09-23T05:07:51.910Z,6.68
2022-09-23T05:10:18.803Z,2.33
2022-09-23T05:12:45.996Z,5.00
2022-09-23T05:15:13.125Z,4.00
2022-09-23T05:17:40.226Z,5.80
2022-09-23T05:20:07.664Z,3.65
2022-09-23T05:22:35.065Z,3.75
2022-09-23T05:25:02.383Z,4.93
2022-09-23T05:27:29.564Z,3.72
2022-09-23T05:29:56.368Z,4.05
2022-09-23T05:32:23.279Z,4.20
2022-09-23T05:34:50.029Z,3.97
2022-09-23T05:37:17.122Z,3.78
2022-09-23T05:39:43.957Z,8.02
2022-09-23T05:42:12.423Z,4.43
2022-09-23T05:44:39.531Z,4.97
2022-09-23T05:47:06.555Z,3.47
2022-09-23T05:49:57.974Z,3.83
2022-09-23T05:52:20.573Z,3.08
2022-09-23T05:54:47.350Z,4.93
2022-09-23T05:57:14.390Z,3.35
2022-09-23T05:59:42.525Z,3.97
2022-09-23T06:02:09.739Z,4.05
2022-09-23T06:04:36.691Z,3.95
2022-09-23T06:07:03.851Z,2.70
2022-09-23T06:09:35.576Z,3.50
2022-09-23T06:12:03.951Z,4.03
2022-09-23T06:14:30.891Z,4.60
2022-09-23T06:16:57.751Z,3.65
2022-09-23T06:19:24.691Z,3.92
2022-09-23T06:21:51.824Z,4.60
2022-09-23T06:24:22.051Z,4.47
2022-09-23T06:26:50.686Z,8.10
2022-09-23T06:29:18.503Z,3.00
2022-09-23T06:31:45.362Z,5.05
2022-09-23T06:34:14.621Z,3.97
2022-09-23T06:36:46.368Z,6.38
2022-09-23T06:39:17.165Z,5.25
2022-09-23T06:41:46.994Z,4.28
2022-09-23T06:44:15.012Z,3.55
2022-09-23T06:46:42.299Z,6.15
2022-09-23T06:49:09.343Z,3.72
2022-09-23T06:51:37.122Z,4.03
2022-09-23T06:54:04.161Z,5.90
2022-09-23T06:56:34.829Z,8.40
2022-09-23T06:59:04.935Z,4.68
2022-09-23T07:01:32.025Z,4.07
2022-09-23T07:04:00.648Z,4.80
2022-09-23T07:06:27.584Z,2.70
2022-09-23T07:08:54.622Z,4.07
2022-09-23T07:11:22.641Z,2.47
2022-09-23T07:13:49.694Z,4.97
2022-09-23T07:16:16.896Z,3.97
2022-09-23T07:18:45.881Z,3.50
2022-09-23T07:21:15.552Z,2.67
2022-09-23T07:23:50.206Z,5.50
2022-09-23T07:26:19.226Z,1.95
2022-09-23T07:28:46.324Z,2.30
2022-09-23T07:31:16.930Z,2.25
2022-09-23T07:33:45.045Z,2.92
2022-09-23T07:36:19.500Z,5.63
2022-09-23T07:38:47.475Z,4.05
2022-09-23T07:41:19.474Z,2.20
2022-09-23T07:43:47.564Z,3.42
2022-09-23T07:46:17.496Z,2.10
2022-09-23T07:48:46.107Z,3.78
2022-09-23T07:51:18.976Z,3.47
2022-09-23T07:53:51.222Z,5.25
2022-09-23T07:56:19.453Z,3.85
2022-09-23T07:59:00.096Z,4.30
2022-09-23T08:01:34.747Z,3.53
2022-09-23T08:04:05.663Z,2.20
2022-09-23T08:06:33.792Z,3.55
2022-09-23T08:09:01.791Z,3.10
2022-09-23T08:11:28.973Z,3.35
2022-09-23T08:13:56.753Z,3.15
2022-09-23T08:16:23.858Z,4.05
2022-09-23T08:18:51.354Z,3.13
2022-09-23T08:21:22.525Z,5.10
2022-09-23T08:23:50.253Z,4.93
2022-09-23T08:26:21.498Z,2.88
2022-09-23T08:28:49.617Z,3.97
2022-09-23T08:31:16.905Z,4.32
2022-09-23T08:33:44.013Z,3.28
2022-09-23T08:36:11.323Z,4.78
2022-09-23T08:38:38.348Z,4.93
2022-09-23T08:41:43.550Z,3.35
2022-09-23T08:44:18.289Z,3.67
2022-09-23T08:46:52.932Z,3.17
2022-09-23T08:49:35.732Z,3.40
2022-09-23T08:52:14.847Z,4.28
2022-09-23T08:54:41.838Z,2.88
2022-09-23T08:57:26.137Z,1.67
2022-09-23T08:59:53.485Z,3.55
2022-09-23T09:02:23.040Z,4.35
2022-09-23T09:04:54.754Z,6.18
2022-09-23T09:07:49.709Z,4.35
2022-09-23T09:10:24.295Z,5.38
2022-09-23T09:13:01.864Z,3.92
2022-09-23T09:15:29.330Z,3.67
2022-09-23T09:18:11.486Z,2.40
2022-09-23T09:21:00.338Z,4.00
2022-09-23T09:23:47.731Z,7.20
2022-09-23T09:26:37.769Z,2.40
2022-09-23T09:29:34.311Z,3.83
2022-09-23T09:32:27.845Z,3.70
2022-09-23T09:35:01.056Z,5.30
2022-09-23T09:37:35.943Z,3.35
2022-09-23T09:40:03.756Z,5.47
2022-09-23T09:42:41.780Z,3.38
2022-09-23T09:45:14.867Z,4.45
2022-09-23T09:48:07.899Z,4.68
2022-09-23T09:50:45.261Z,3.38
2022-09-23T09:53:35.845Z,3.28
2022-09-23T09:56:08.892Z,3.58
2022-09-23T09:58:55.531Z,4.90
2022-09-23T10:01:34.252Z,5.88
2022-09-23T10:04:03.928Z,3.88
2022-09-23T10:06:33.727Z,3.50
2022-09-23T10:09:21.866Z,3.85
2022-09-23T10:12:11.154Z,3.88
2022-09-23T10:14:38.155Z,2.88
2022-09-23T10:17:07.257Z,7.40
2022-09-23T10:19:38.046Z,3.60
2022-09-23T10:22:18.443Z,4.43
2022-09-23T10:24:50.073Z,4.43
2022-09-23T10:27:28.203Z,5.10
2022-09-23T10:30:01.863Z,5.05
2022-09-23T10:32:30.714Z,4.18
2022-09-23T10:34:59.236Z,2.65
2022-09-23T10:37:48.541Z,4.60
2022-09-23T10:40:49.759Z,5.72
2022-09-23T10:43:38.330Z,4.10
2022-09-23T10:46:38.978Z,4.18
2022-09-23T10:49:31.520Z,6.20
2022-09-23T10:52:07.194Z,4.30
2022-09-23T10:54:58.982Z,5.22
2022-09-23T10:58:04.411Z,5.25
2022-09-23T11:00:41.440Z,3.38
2022-09-23T11:03:36.349Z,4.63
2022-09-23T11:06:11.427Z,2.80
2022-09-23T11:11:21.964Z,4.55
2022-09-23T11:14:06.430Z,4.45
2022-09-23T11:17:14.980Z,3.10
2022-09-23T11:20:01.555Z,3.22
2022-09-23T11:22:53.154Z,3.15
2022-09-23T11:25:39.799Z,3.45
2022-09-23T11:28:45.530Z,2.83
2022-09-23T11:31:31.342Z,3.15
2022-09-23T11:34:16.162Z,1.50
2022-09-23T11:36:46.733Z,3.13
2022-09-23T11:39:37.345Z,4.25
2022-09-23T11:42:12.922Z,4.50
2022-09-23T11:44:50.213Z,3.10
2022-09-23T11:47:49.668Z,4.43
2022-09-23T11:50:25.962Z,2.33
2022-09-23T11:53:02.979Z,3.97
2022-09-23T11:55:46.894Z,5.78
2022-09-23T11:58:30.547Z,4.10
2022-09-23T12:01:10.376Z,4.53
2022-09-23T12:04:10.842Z,4.75
2022-09-23T12:06:53.334Z,4.38
2022-09-23T12:09:57.405Z,5.40
2022-09-23T12:12:48.373Z,2.85
2022-09-23T12:15:54.610Z,4.53
2022-09-23T12:18:45.769Z,3.70
2022-09-23T12:21:50.191Z,7.40
2022-09-23T12:24:52.013Z,3.58
2022-09-23T12:27:26.267Z,4.63
2022-09-23T12:30:00.137Z,5.70
2022-09-23T12:32:27.847Z,5.25
2022-09-23T12:34:55.436Z,2.95
2022-09-23T12:37:28.913Z,6.47
2022-09-23T12:40:02.103Z,3.65
2022-09-23T12:42:31.283Z,3.67
2022-09-23T12:45:32.834Z,2.75
2022-09-23T12:48:05.040Z,4.75
2022-09-23T12:51:13.812Z,4.07
2022-09-23T12:53:55.819Z,5.53
2022-09-23T12:56:26.744Z,3.25
2022-09-23T12:58:53.580Z,5.13
2022-09-23T13:01:23.443Z,3.45
2022-09-23T13:04:12.295Z,6.97
2022-09-23T13:07:06.962Z,6.20
2022-09-23T13:09:41.511Z,6.20
2022-09-23T13:12:34.396Z,7.45
2022-09-23T13:15:06.427Z,3.65
2022-09-23T13:17:38.786Z,2.70
2022-09-23T13:20:38.537Z,4.72
2022-09-23T13:23:20.464Z,6.47
2022-09-23T13:25:48.562Z,4.97
2022-09-23T13:28:25.008Z,4.82
2022-09-23T13:30:52.459Z,7.68
2022-09-23T13:33:43.349Z,6.55
2022-09-23T13:36:13.933Z,4.85
2022-09-23T13:38:41.720Z,4.63
2022-09-23T13:41:08.740Z,3.88
2022-09-23T13:43:42.731Z,3.35
2022-09-23T13:46:13.441Z,2.60
2022-09-23T13:48:43.505Z,5.05
2022-09-23T13:51:16.218Z,3.42
2022-09-23T13:53:43.344Z,7.10
2022-09-23T13:56:16.021Z,5.25
2022-09-23T13:58:43.824Z,2.50
2022-09-23T14:01:30.399Z,6.97
2022-09-23T14:03:57.537Z,4.35
2022-09-23T14:06:29.841Z,2.05
2022-09-23T14:09:00.055Z,4.82
2022-09-23T14:11:33.831Z,4.55
2022-09-23T14:14:08.092Z,3.75
2022-09-23T14:16:41.177Z,3.33
2022-09-23T14:19:17.670Z,4.45
2022-09-23T14:21:49.317Z,5.28
2022-09-23T14:24:26.010Z,10.35
2022-09-23T14:27:06.747Z,2.10
2022-09-23T14:29:39.721Z,3.10
2022-09-23T14:32:17.677Z,6.65
2022-09-23T14:34:50.501Z,3.25
2022-09-23T14:37:57.341Z,4.22
2022-09-23T14:40:30.892Z,2.40
2022-09-23T14:43:23.596Z,2.63
2022-09-23T14:45:56.948Z,4.45
2022-09-23T14:48:44.579Z,4.55
2022-09-23T14:51:16.234Z,47.08
2022-09-23T14:53:46.509Z,8.38
2022-09-23T14:56:22.096Z,5.22
2022-09-23T14:58:59.068Z,14.05
2022-09-23T15:01:34.788Z,5.45
2022-09-23T15:04:13.017Z,3.63
2022-09-23T15:06:44.802Z,4.82
2022-09-23T15:09:25.200Z,6.38
2022-09-23T15:11:56.421Z,3.50
2022-09-23T15:14:39.224Z,7.40
2022-09-23T15:17:25.605Z,4.68
2022-09-23T15:19:59.879Z,2.75
2022-09-23T15:22:27.164Z,3.80
2022-09-23T15:25:08.579Z,3.33
2022-09-23T15:27:36.208Z,3.20
2022-09-23T15:30:18.249Z,3.10
2022-09-23T15:32:46.229Z,6.60
2022-09-23T15:35:18.947Z,4.10
2022-09-23T15:37:48.762Z,4.07
2022-09-23T15:40:26.076Z,9.65
2022-09-23T15:42:57.038Z,5.00
2022-09-23T15:45:43.009Z,4.05
2022-09-23T15:48:22.807Z,7.32
2022-09-23T15:50:55.209Z,13.07
2022-09-23T15:53:26.379Z,8.88
2022-09-23T15:55:54.318Z,8.43
2022-09-23T15:58:22.812Z,13.45
2022-09-23T16:00:56.600Z,6.85
2022-09-23T16:03:30.907Z,4.18
2022-09-23T16:08:30.269Z,6.93
2022-09-23T16:10:57.475Z,4.47
2022-09-23T16:13:24.722Z,20.95
2022-09-23T16:15:51.764Z,6.03
2022-09-23T16:18:18.807Z,9.90
2022-09-23T16:20:47.630Z,46.92
2022-09-23T16:23:38.882Z,11.55
2022-09-23T16:26:30.688Z,8.48
2022-09-23T16:28:58.701Z,13.13
2022-09-23T16:31:29.704Z,17.95
2022-09-23T16:33:57.280Z,8.90
2022-09-23T16:36:27.906Z,6.05
2022-09-23T16:38:55.867Z,12.40
2022-09-23T16:41:24.520Z,8.25
2022-09-23T16:43:52.198Z,7.57
2022-09-23T16:46:20.723Z,7.88
2022-09-23T16:48:52.305Z,6.13
2022-09-23T16:51:26.593Z,5.60
2022-09-23T16:53:56.929Z,11.98
2022-09-23T16:56:28.414Z,7.53
2022-09-23T16:58:57.215Z,8.38
2022-09-23T17:01:45.319Z,4.60
2022-09-23T17:04:13.887Z,9.18
2022-09-23T17:06:51.764Z,7.45
2022-09-23T17:09:21.094Z,8.38
2022-09-23T17:12:01.565Z,12.15
2022-09-23T17:14:31.683Z,8.82
2022-09-23T17:16:59.194Z,6.68
2022-09-23T17:19:26.522Z,7.70
2022-09-23T17:21:54.015Z,9.30
2022-09-23T17:24:21.148Z,7.35
2022-09-23T17:26:52.845Z,7.35
2022-09-23T17:29:20.764Z,6.53
2022-09-23T17:31:47.898Z,6.63
2022-09-23T17:34:15.038Z,10.35
2022-09-23T17:36:42.076Z,7.95
2022-09-23T17:39:09.289Z,9.40
2022-09-23T17:41:37.612Z,6.60
2022-09-23T17:44:04.908Z,7.38
2022-09-23T17:46:32.275Z,9.15
2022-09-23T17:48:59.633Z,9.73
2022-09-23T17:51:27.730Z,10.68
2022-09-23T17:53:54.935Z,11.10
2022-09-23T17:56:25.118Z,11.75
2022-09-23T17:58:53.583Z,13.48
2022-09-23T18:01:25.781Z,18.85
2022-09-23T18:03:56.993Z,15.65
2022-09-23T18:06:26.362Z,21.67
2022-09-23T18:08:56.095Z,17.75
2022-09-23T18:11:35.058Z,19.23
2022-09-23T18:14:22.663Z,23.80
2022-09-23T18:16:52.590Z,22.48
2022-09-23T18:19:25.016Z,20.75
2022-09-23T18:21:54.793Z,20.45
2022-09-23T18:24:37.937Z,21.13
2022-09-23T18:27:06.668Z,21.92
2022-09-23T18:29:35.083Z,26.33
2022-09-23T18:32:03.232Z,30.48
2022-09-23T18:34:30.468Z,26.65
2022-09-23T18:36:57.659Z,27.98
2022-09-23T18:39:24.950Z,35.20
2022-09-23T18:41:52.035Z,39.58
2022-09-23T18:44:20.204Z,34.55
2022-09-23T18:46:47.534Z,30.45
2022-09-23T18:49:33.555Z,30.17
2022-09-23T18:52:00.941Z,27.05
2022-09-23T18:54:29.307Z,29.42
2022-09-23T18:56:56.817Z,29.45
2022-09-23T18:59:26.469Z,28.13
2022-09-23T19:01:56.382Z,24.95
2022-09-23T19:04:25.502Z,23.73
2022-09-23T19:06:54.129Z,21.42
2022-09-23T19:09:21.523Z,19.13
2022-09-23T19:11:52.381Z,20.48
2022-09-23T19:14:19.901Z,17.58
2022-09-23T19:16:49.331Z,16.73
2022-09-23T19:19:16.635Z,22.33
2022-09-23T19:21:43.880Z,22.17
2022-09-23T19:24:15.832Z,20.58
2022-09-23T19:26:43.997Z,16.73
2022-09-23T19:29:16.252Z,20.45
2022-09-23T19:31:44.073Z,15.05
2022-09-23T19:34:31.011Z,13.55
2022-09-23T19:36:58.571Z,14.52
2022-09-23T19:39:28.708Z,13.82
2022-09-23T19:41:56.121Z,13.70
2022-09-23T19:44:25.332Z,11.20
2022-09-23T19:46:56.435Z,13.38
2022-09-23T19:49:25.509Z,12.60
2022-09-23T19:51:56.436Z,11.15
2022-09-23T19:54:26.915Z,10.68
2022-09-23T19:56:53.988Z,13.63
2022-09-23T19:59:21.216Z,10.55
2022-09-23T20:01:49.127Z,12.77
2022-09-23T20:04:16.967Z,16.35
2022-09-23T20:06:46.016Z,13.55
2022-09-23T20:09:13.420Z,11.88
2022-09-23T20:11:43.199Z,13.48
2022-09-23T20:14:12.064Z,15.43
2022-09-23T20:16:39.123Z,14.38
2022-09-23T20:19:06.333Z,16.33
2022-09-23T20:21:34.809Z,10.52
2022-09-23T20:24:04.549Z,12.85
2022-09-23T20:26:50.272Z,10.38
2022-09-23T20:29:17.325Z,13.63
2022-09-23T20:31:44.794Z,11.32
2022-09-23T20:34:12.412Z,13.10
2022-09-23T20:36:41.946Z,14.77
2022-09-23T20:39:10.419Z,11.50
2022-09-23T20:41:39.413Z,9.27
2022-09-23T20:44:12.777Z,7.45
2022-09-23T20:46:46.743Z,8.18
2022-09-23T20:49:16.098Z,7.95
2022-09-23T20:51:43.269Z,7.00
2022-09-23T20:54:11.364Z,8.00
2022-09-23T20:56:38.615Z,8.20
2022-09-23T20:59:05.890Z,8.73
2022-09-23T21:01:35.418Z,7.32
2022-09-23T21:04:08.211Z,7.43
2022-09-23T21:06:36.952Z,7.00
2022-09-23T21:09:05.564Z,9.63
2022-09-23T21:11:32.683Z,6.47
2022-09-23T21:14:01.328Z,7.75
2022-09-23T21:16:29.089Z,9.75
2022-09-23T21:18:56.132Z,10.90
2022-09-23T21:21:23.332Z,10.75
2022-09-23T21:23:51.063Z,12.55
2022-09-23T21:26:26.191Z,10.60
2022-09-23T21:31:26.003Z,7.15
2022-09-23T21:33:53.165Z,12.13
2022-09-23T21:36:20.866Z,8.98
2022-09-23T21:38:47.873Z,10.43
2022-09-23T21:41:15.102Z,10.05
2022-09-23T21:43:42.210Z,9.18
2022-09-23T21:46:15.480Z,8.68
2022-09-23T21:48:43.175Z,13.30
2022-09-23T21:51:13.427Z,13.13
2022-09-23T21:53:41.419Z,9.70
2022-09-23T21:56:18.078Z,7.97
2022-09-23T21:58:47.096Z,11.38
2022-09-23T22:01:20.096Z,10.48
2022-09-23T22:04:05.379Z,12.00
2022-09-23T22:06:32.667Z,9.35
2022-09-23T22:09:01.906Z,13.18
2022-09-23T22:11:52.294Z,11.82
2022-09-23T22:14:20.669Z,13.57
2022-09-23T22:16:47.907Z,13.55
2022-09-23T22:19:15.701Z,10.80
2022-09-23T22:21:45.387Z,11.85
2022-09-23T22:24:13.206Z,11.40
2022-09-23T22:26:42.882Z,10.23
2022-09-23T22:29:30.819Z,10.65
2022-09-23T22:32:17.240Z,9.15
2022-09-23T22:34:50.465Z,10.57
2022-09-23T22:37:30.335Z,10.18
2022-09-23T22:39:57.259Z,10.57
2022-09-23T22:42:24.428Z,8.93
2022-09-23T22:44:52.166Z,8.57
2022-09-23T22:47:19.713Z,8.10
2022-09-23T22:49:47.413Z,9.18
2022-09-23T22:52:16.335Z,10.15
2022-09-23T22:54:43.329Z,8.85
2022-09-23T22:57:10.271Z,9.32
2022-09-23T22:59:40.144Z,7.97
2022-09-23T23:02:08.099Z,6.97
2022-09-23T23:04:37.190Z,7.60
2022-09-23T23:07:04.667Z,8.23
2022-09-23T23:09:31.545Z,9.00
2022-09-23T23:11:58.470Z,7.82
2022-09-23T23:14:27.917Z,6.85
2022-09-23T23:16:55.141Z,7.88
2022-09-23T23:19:23.263Z,8.15
2022-09-23T23:21:50.848Z,11.10
2022-09-23T23:24:23.553Z,11.82
2022-09-23T23:26:51.594Z,11.68
2022-09-23T23:29:20.534Z,7.43
2022-09-23T23:31:48.211Z,8.27
2022-09-23T23:34:20.033Z,10.55
2022-09-23T23:36:51.938Z,10.95
2022-09-23T23:39:18.706Z,9.52
2022-09-23T23:41:45.491Z,8.43
2022-09-23T23:44:12.667Z,8.73
2022-09-23T23:46:39.581Z,8.48
2022-09-23T23:49:06.863Z,10.02
2022-09-23T23:51:33.765Z,11.50
2022-09-23T23:54:00.867Z,9.60
2022-09-23T23:56:30.511Z,10.07
2022-09-23T23:58:59.543Z,10.75
